Time;durP1;ratioP1;P1;durP2;ratioP2;P2;SDS_P1;SDS_P2;PMS_P1;PMS_P2;Temp;Humidity;BMP_temperature;BMP_pressure;BME280_temperature;BME280_humidity;BME280_pressure;Samples;Min_cycle;Max_cycle;Signal;HPM_P1;HPM_P2
2022/06/17 00:01:32;;;;;;;0.77;0.57;;;;;;;13.64;89.08;102363.88;10534583;28;20048;-76
2022/06/17 00:06:42;;;;;;;0.45;0.30;;;;;;;14.12;88.35;102368.16;10536400;28;20040;-76
2022/06/17 00:11:45;;;;;;;0.88;0.77;;;;;;;13.83;86.68;102361.06;10534954;28;20495;-77
2022/06/17 00:16:47;;;;;;;0.50;0.32;;;;;;;13.82;87.02;102346.34;10534036;28;20044;-77
2022/06/17 00:21:52;;;;;;;0.20;0.20;;;;;;;13.76;87.39;102357.34;10537746;28;20052;-76
2022/06/17 00:26:54;;;;;;;0.10;0.10;;;;;;;13.52;87.65;102363.41;10533238;28;20044;-77
2022/06/17 00:31:57;;;;;;;0.15;0.15;;;;;;;13.38;86.00;102375.84;10539002;28;20093;-77
2022/06/17 00:37:02;;;;;;;0.47;0.43;;;;;;;13.01;87.71;102375.25;10516573;28;20044;-76
2022/06/17 00:42:22;;;;;;;0.50;0.40;;;;;;;13.25;87.44;102379.63;10513809;28;20058;-77
2022/06/17 00:47:46;;;;;;;0.60;0.45;;;;;;;13.29;85.37;102365.09;10521381;28;20032;-81
2022/06/17 00:53:09;;;;;;;0.20;0.20;;;;;;;13.42;88.53;102376.84;10540035;28;20063;-81
2022/06/17 00:58:21;;;;;;;0.10;0.10;;;;;;;13.17;90.95;102373.28;10544886;28;20558;-80
2022/06/17 01:03:30;;;;;;;0.35;0.30;;;;;;;13.17;92.59;102381.03;10540564;28;20050;-80
2022/06/17 01:14:00;;;;;;;0.63;0.43;;;;;;;13.21;91.42;102374.28;10520223;28;20044;-80
2022/06/17 01:19:15;;;;;;;0.50;0.30;;;;;;;13.30;91.21;102378.09;10510389;28;20048;-81
2022/06/17 01:24:18;;;;;;;0.47;0.40;;;;;;;13.27;88.67;102372.81;10528491;28;20040;-81
2022/06/17 01:29:20;;;;;;;0.43;0.25;;;;;;;13.12;88.70;102375.69;10511902;28;20093;-81
2022/06/17 01:34:22;;;;;;;0.47;0.47;;;;;;;13.13;88.53;102376.56;10560418;28;20100;-81
2022/06/17 01:39:23;;;;;;;0.85;0.35;;;;;;;13.11;88.79;102386.84;10537528;28;20044;-81
2022/06/17 01:44:33;;;;;;;0.52;0.47;;;;;;;13.16;88.78;102390.50;10546323;28;20070;-81
2022/06/17 01:49:40;;;;;;;0.22;0.22;;;;;;;13.12;89.56;102392.91;10511486;28;20044;-81
2022/06/17 01:54:51;;;;;;;0.65;0.55;;;;;;;13.14;90.01;102386.09;10566419;28;20040;-81
2022/06/17 01:59:58;;;;;;;0.90;0.85;;;;;;;13.23;89.40;102386.44;10546498;28;20092;-81
2022/06/17 02:05:15;;;;;;;1.10;0.65;;;;;;;13.13;92.28;102392.09;10572019;28;20044;-81
2022/06/17 02:10:17;;;;;;;0.40;0.30;;;;;;;13.11;92.13;102391.16;10535360;28;20052;-81
2022/06/17 02:15:19;;;;;;;0.35;0.30;;;;;;;13.15;92.30;102382.66;10510603;28;20044;-81
2022/06/17 02:20:33;;;;;;;0.43;0.30;;;;;;;13.04;90.46;102378.78;10544606;28;20052;-81
2022/06/17 02:25:42;;;;;;;0.75;0.30;;;;;;;12.86;92.40;102382.41;10552010;28;20040;-80
2022/06/17 02:30:48;;;;;;;1.02;0.75;;;;;;;12.86;93.25;102379.81;10525850;28;20044;-80
2022/06/17 02:36:07;;;;;;;0.25;0.25;;;;;;;12.79;93.96;102383.88;10527186;28;20048;-81
2022/06/17 02:41:17;;;;;;;0.65;0.40;;;;;;;13.09;91.82;102388.50;10543453;28;20044;-81
2022/06/17 02:46:33;;;;;;;0.70;0.40;;;;;;;12.62;92.43;102380.56;10525609;28;20135;-81
2022/06/17 02:51:39;;;;;;;0.50;0.20;;;;;;;12.95;92.40;102376.72;10525646;28;20078;-81
2022/06/17 02:56:47;;;;;;;0.45;0.38;;;;;;;12.78;94.36;102365.69;10524911;28;20287;-81
2022/06/17 03:01:56;;;;;;;1.70;0.93;;;;;;;12.78;95.30;102355.34;10542709;28;20044;-80
2022/06/17 03:07:14;;;;;;;4.78;0.45;;;;;;;12.93;95.62;102355.09;10530218;28;20123;-81
2022/06/17 03:12:23;;;;;;;2.35;1.35;;;;;;;13.13;93.85;102343.81;10541837;28;20096;-81
2022/06/17 03:17:25;;;;;;;1.20;0.73;;;;;;;13.63;89.51;102348.25;10528261;28;20414;-80
2022/06/17 03:22:30;;;;;;;0.65;0.57;;;;;;;13.51;91.13;102355.56;10544303;28;20130;-81
2022/06/17 03:27:43;;;;;;;0.40;0.32;;;;;;;13.54;90.66;102366.94;10525407;28;20036;-81
2022/06/17 03:32:49;;;;;;;0.38;0.38;;;;;;;13.42;91.40;102382.00;10548879;28;20083;-81
2022/06/17 03:37:59;;;;;;;0.13;0.13;;;;;;;13.26;91.46;102376.22;10549972;28;20082;-81
2022/06/17 03:43:11;;;;;;;2.28;0.93;;;;;;;13.54;90.71;102377.28;10558618;28;20070;-81
2022/06/17 03:48:28;;;;;;;1.65;0.65;;;;;;;13.42;92.32;102393.25;10592240;28;20487;-81
2022/06/17 03:53:34;;;;;;;0.35;0.35;;;;;;;13.32;92.24;102407.50;10550544;28;20037;-81
2022/06/17 03:59:06;;;;;;;0.20;0.20;;;;;;;13.37;91.23;102406.78;10559175;28;20043;-81
2022/06/17 04:04:19;;;;;;;0.38;0.10;;;;;;;13.49;91.22;102415.09;10539378;28;20048;-81
2022/06/17 04:09:24;;;;;;;3.97;0.85;;;;;;;13.25;93.04;102415.84;10555399;28;20047;-81
2022/06/17 04:14:34;;;;;;;0.60;0.60;;;;;;;13.40;92.71;102418.22;10521045;28;20487;-81
2022/06/17 04:19:36;;;;;;;0.40;0.40;;;;;;;13.48;91.21;102418.50;10522814;28;20048;-81
2022/06/17 04:24:38;;;;;;;1.25;0.52;;;;;;;13.63;90.93;102410.41;10522196;28;20048;-81
2022/06/17 04:29:56;;;;;;;0.75;0.50;;;;;;;13.98;87.75;102394.38;10516472;28;20047;-81
2022/06/17 04:34:59;;;;;;;1.63;0.93;;;;;;;14.22;85.92;102395.25;10521679;28;20051;-81
2022/06/17 04:40:02;;;;;;;4.32;0.93;;;;;;;14.49;85.03;102393.56;10520180;28;20075;-81
2022/06/17 04:45:19;;;;;;;1.35;0.60;;;;;;;14.71;84.81;102392.56;10524799;28;20071;-82
2022/06/17 04:50:25;;;;;;;1.63;1.08;;;;;;;15.16;83.57;102374.09;10531068;28;20048;-80
2022/06/17 04:55:34;;;;;;;1.52;1.13;;;;;;;15.13;81.15;102374.03;10520600;28;20446;-80
2022/06/17 05:00:59;;;;;;;1.65;0.93;;;;;;;15.48;79.80;102361.22;10515405;28;20055;-80
2022/06/17 05:06:27;;;;;;;1.17;0.73;;;;;;;15.74;76.92;102363.69;10504904;28;20101;-81
2022/06/17 05:11:34;;;;;;;1.17;0.52;;;;;;;15.97;76.61;102366.94;10526569;28;20078;-80
2022/06/17 05:16:37;;;;;;;5.97;0.70;;;;;;;16.20;75.69;102368.34;10532964;28;20043;-80
2022/06/17 05:21:39;;;;;;;0.50;0.43;;;;;;;16.55;74.53;102369.25;10508049;28;20093;-81
2022/06/17 05:26:54;;;;;;;0.70;0.50;;;;;;;16.75;73.76;102368.88;10520802;28;20040;-81
2022/06/17 05:31:56;;;;;;;2.00;0.93;;;;;;;16.96;72.49;102373.72;10522918;28;20033;-80
2022/06/17 05:37:05;;;;;;;1.35;0.95;;;;;;;16.89;72.37;102377.88;10532280;28;20040;-81
2022/06/17 05:42:12;;;;;;;1.08;0.68;;;;;;;17.12;72.21;102372.38;10561577;28;20051;-80
2022/06/17 05:47:15;;;;;;;1.30;0.60;;;;;;;17.22;70.07;102371.69;10520547;28;20051;-80
2022/06/17 05:52:52;;;;;;;1.30;0.60;;;;;;;17.47;70.26;102366.13;10587100;28;20402;-80
2022/06/17 05:58:13;;;;;;;0.52;0.40;;;;;;;17.52;70.56;102364.50;10547115;28;20494;-81
2022/06/17 06:03:21;;;;;;;0.65;0.40;;;;;;;17.35;71.45;102367.63;10538732;28;20055;-81
2022/06/17 06:08:24;;;;;;;1.15;0.77;;;;;;;17.36;71.37;102366.78;10534332;28;20044;-81
2022/06/17 06:13:28;;;;;;;1.63;0.65;;;;;;;17.81;70.62;102366.81;10561436;28;20040;-81
2022/06/17 06:18:45;;;;;;;0.82;0.40;;;;;;;17.85;67.91;102373.81;10564420;28;20044;-80
2022/06/17 06:23:50;;;;;;;0.57;0.40;;;;;;;18.21;65.95;102372.78;10510834;28;20490;-80
2022/06/17 06:28:56;;;;;;;1.73;0.82;;;;;;;18.14;66.90;102363.97;10509894;28;20075;-79
2022/06/17 06:34:02;;;;;;;1.98;0.98;;;;;;;18.60;66.80;102368.22;10534221;28;20037;-79
2022/06/17 06:39:13;;;;;;;0.70;0.68;;;;;;;19.03;64.95;102374.13;10555798;28;20032;-79
2022/06/17 06:44:15;;;;;;;0.28;0.28;;;;;;;19.35;65.26;102358.00;10535079;28;20046;-79
2022/06/17 06:49:35;;;;;;;4.10;2.22;;;;;;;19.75;60.85;102362.81;10529907;28;20112;-80
2022/06/17 06:54:37;;;;;;;0.55;0.47;;;;;;;20.36;59.62;102354.72;10522633;28;20119;-80
2022/06/17 06:59:40;;;;;;;1.55;0.80;;;;;;;20.68;55.89;102340.09;10520654;28;20501;-79
2022/06/17 07:04:42;;;;;;;0.68;0.65;;;;;;;21.24;54.15;102334.34;10503094;28;20055;-80
2022/06/17 07:09:44;;;;;;;0.77;0.52;;;;;;;21.37;53.56;102323.88;10527676;28;20059;-79
2022/06/17 07:14:47;;;;;;;0.20;0.20;;;;;;;21.86;51.04;102323.16;10513766;28;20055;-80
2022/06/17 07:19:48;;;;;;;0.65;0.65;;;;;;;21.71;54.30;102330.13;10536220;28;20452;-80
2022/06/17 07:24:50;;;;;;;0.45;0.38;;;;;;;21.73;51.84;102331.91;10527825;28;20097;-80
2022/06/17 07:29:51;;;;;;;0.20;0.20;;;;;;;22.35;51.80;102325.78;10540881;28;20051;-80
2022/06/17 07:34:53;;;;;;;0.45;0.38;;;;;;;22.96;51.86;102309.97;10523544;28;20032;-79
2022/06/17 07:39:55;;;;;;;0.38;0.30;;;;;;;23.30;48.61;102304.56;10540639;28;20123;-80
2022/06/17 07:44:56;;;;;;;1.92;0.60;;;;;;;23.38;48.78;102297.50;10519242;28;20098;-80
2022/06/17 07:49:58;;;;;;;0.77;0.55;;;;;;;23.13;47.87;102297.59;10538207;28;20114;-80
2022/06/17 07:54:59;;;;;;;2.33;0.20;;;;;;;22.50;47.85;102296.06;10539408;28;20097;-76
2022/06/17 08:00:07;;;;;;;0.40;0.20;;;;;;;22.95;46.32;102298.56;10513334;28;20064;-77
2022/06/17 08:05:12;;;;;;;0.65;0.30;;;;;;;23.19;47.35;102290.63;10533110;28;20041;-76
2022/06/17 08:10:18;;;;;;;0.28;0.22;;;;;;;24.11;48.22;102288.25;10532384;28;20048;-77
2022/06/17 08:15:20;;;;;;;0.65;0.50;;;;;;;24.88;47.26;102287.50;10534703;28;20048;-78
2022/06/17 08:20:27;;;;;;;0.65;0.52;;;;;;;24.19;45.71;102307.50;10516277;28;20048;-78
2022/06/17 08:25:30;;;;;;;0.30;0.25;;;;;;;24.91;45.06;102321.72;10516135;28;20051;-78
2022/06/17 08:30:36;;;;;;;0.38;0.28;;;;;;;24.19;43.53;102324.19;10534161;28;20130;-79
2022/06/17 08:35:43;;;;;;;0.10;0.10;;;;;;;24.38;43.38;102313.47;10528621;28;20040;-80
2022/06/17 08:40:54;;;;;;;0.38;0.32;;;;;;;24.73;43.57;102299.06;10534044;28;20127;-79
2022/06/17 08:46:23;;;;;;;1.08;0.40;;;;;;;24.38;42.22;102298.56;10534159;28;20032;-79
2022/06/17 08:51:54;;;;;;;1.58;0.22;;;;;;;24.60;40.99;102300.06;10538935;28;20608;-80
2022/06/17 08:57:19;;;;;;;1.17;0.63;;;;;;;24.73;42.33;102291.16;10520042;28;20048;-79
2022/06/17 09:02:36;;;;;;;0.35;0.10;;;;;;;25.17;42.30;102294.16;10524381;28;20482;-80
2022/06/17 09:08:07;;;;;;;0.20;0.20;;;;;;;25.13;40.46;102295.09;10548178;28;20096;-80
2022/06/17 09:13:20;;;;;;;0.60;0.60;;;;;;;25.01;41.09;102294.34;10505395;28;20089;-79
2022/06/17 09:18:35;;;;;;;0.25;0.20;;;;;;;25.11;39.43;102294.25;10542486;28;20047;-80
2022/06/17 09:23:39;;;;;;;0.25;0.13;;;;;;;25.21;38.84;102303.75;10528985;28;20445;-79
2022/06/17 09:28:49;;;;;;;1.05;0.35;;;;;;;25.44;40.29;102300.84;10546118;28;20055;-80
2022/06/17 09:34:21;;;;;;;1.45;0.50;;;;;;;25.66;39.56;102282.91;10540448;28;20437;-80
2022/06/17 09:39:55;;;;;;;1.15;0.60;;;;;;;25.22;40.32;102280.91;10522507;28;20067;-79
2022/06/17 09:45:02;;;;;;;1.95;0.28;;;;;;;25.01;38.37;102289.06;10520540;28;20051;-79
2022/06/17 09:50:18;;;;;;;1.08;0.68;;;;;;;25.68;39.60;102289.94;10544252;28;20052;-79
2022/06/17 09:55:31;;;;;;;2.38;0.73;;;;;;;26.11;39.31;102299.81;10544156;28;20043;-80
2022/06/17 10:00:41;;;;;;;0.38;0.38;;;;;;;25.55;39.06;102298.06;10547843;28;20044;-80
2022/06/17 10:06:11;;;;;;;0.43;0.28;;;;;;;25.95;38.93;102284.19;10539938;28;20437;-80
2022/06/17 10:11:25;;;;;;;0.20;0.20;;;;;;;26.25;36.68;102284.59;10561661;28;20089;-79
2022/06/17 10:22:48;;;;;;;1.27;0.57;;;;;;;26.28;39.72;102281.91;10542735;28;20119;-79
2022/06/17 10:28:30;;;;;;;0.60;0.22;;;;;;;26.04;38.27;102277.03;10521344;28;20039;-79
2022/06/17 10:33:39;;;;;;;0.63;0.47;;;;;;;26.03;38.16;102272.63;10548069;28;20040;-79
2022/06/17 10:38:54;;;;;;;1.65;0.70;;;;;;;25.97;38.08;102255.16;10541467;28;20105;-79
2022/06/17 10:43:56;;;;;;;0.52;0.45;;;;;;;26.38;39.66;102256.19;10533890;28;20087;-79
2022/06/17 10:49:02;;;;;;;0.73;0.52;;;;;;;26.52;37.91;102255.94;10540335;28;20130;-78
2022/06/17 10:54:13;;;;;;;0.50;0.40;;;;;;;26.52;39.56;102248.00;10540125;28;20119;-79
2022/06/17 10:59:28;;;;;;;1.00;0.57;;;;;;;25.97;39.51;102256.00;10543712;28;20040;-79
2022/06/17 11:04:39;;;;;;;0.30;0.30;;;;;;;26.50;40.86;102244.50;10524278;28;20510;-79
2022/06/17 11:09:51;;;;;;;0.20;0.20;;;;;;;26.45;39.30;102235.81;10539006;28;20044;-79
2022/06/17 11:14:55;;;;;;;0.08;0.08;;;;;;;26.67;36.01;102235.38;10539817;28;20097;-80
2022/06/17 11:20:02;;;;;;;0.60;0.60;;;;;;;27.00;36.44;102225.00;10534603;28;20040;-80
2022/06/17 11:25:38;;;;;;;0.10;0.10;;;;;;;26.74;35.21;102226.41;10539047;28;20372;-79
2022/06/17 11:30:50;;;;;;;0.30;0.30;;;;;;;26.17;36.57;102231.06;10543018;28;20036;-80
2022/06/17 11:36:09;;;;;;;0.10;0.10;;;;;;;27.22;37.46;102215.66;10537703;28;20036;-79
2022/06/17 11:41:20;;;;;;;;;;;;;;;26.35;35.67;102211.34;10541692;28;20052;-81
2022/06/17 11:46:32;;;;;;;1.33;0.98;;;;;;;27.45;37.98;102203.69;10527479;28;20378;-79
2022/06/17 11:51:37;;;;;;;1.10;0.63;;;;;;;27.42;36.42;102195.84;10542109;28;20040;-79
2022/06/17 11:56:43;;;;;;;0.43;0.20;;;;;;;27.49;35.64;102194.78;10542835;28;20043;-80
2022/06/17 12:01:54;;;;;;;0.28;0.20;;;;;;;27.42;33.71;102187.91;10540155;28;20047;-79
2022/06/17 12:06:56;;;;;;;1.75;0.60;;;;;;;27.53;33.75;102183.19;10539234;28;20048;-80
2022/06/17 12:12:08;;;;;;;0.22;0.22;;;;;;;27.72;31.50;102164.22;10517947;28;20047;-79
2022/06/17 12:17:15;;;;;;;0.10;0.10;;;;;;;27.83;32.83;102159.47;10530967;28;20055;-78
2022/06/17 12:22:29;;;;;;;0.20;0.20;;;;;;;27.30;32.50;102157.28;10521803;28;20046;-79
2022/06/17 12:27:47;;;;;;;4.13;0.43;;;;;;;27.93;34.62;102135.41;10515225;28;20399;-78
2022/06/17 12:33:36;;;;;;;0.10;0.10;;;;;;;27.65;30.97;102152.91;10534828;28;20436;-79
2022/06/17 12:38:47;;;;;;;0.20;0.20;;;;;;;27.75;32.59;102126.19;10493336;28;20409;-79
2022/06/17 12:44:18;;;;;;;0.10;0.10;;;;;;;28.41;29.28;102111.06;10541078;28;20048;-79
2022/06/17 12:55:27;;;;;;;3.03;0.30;;;;;;;28.10;32.20;102111.09;10532550;28;20097;-79
2022/06/17 13:00:47;;;;;;;0.20;0.10;;;;;;;27.89;31.94;102109.94;10501650;28;20153;-79
2022/06/17 13:05:50;;;;;;;0.35;0.22;;;;;;;27.99;31.18;102109.63;10524003;28;20036;-78
2022/06/17 13:11:04;;;;;;;0.00;0.00;;;;;;;28.19;31.82;102105.56;10558141;28;20495;-78
2022/06/17 13:16:27;;;;;;;0.17;0.17;;;;;;;28.26;35.18;102101.81;10549665;28;20097;-77
2022/06/17 13:21:41;;;;;;;0.25;0.25;;;;;;;28.49;33.58;102103.75;10518431;28;20138;-78
2022/06/17 13:27:03;;;;;;;0.13;0.10;;;;;;;27.89;31.58;102086.94;10531098;28;20058;-79
2022/06/17 13:32:14;;;;;;;0.25;0.20;;;;;;;27.79;31.39;102081.06;10519147;28;20054;-78
2022/06/17 13:37:36;;;;;;;0.10;0.10;;;;;;;28.38;31.92;102068.78;10540962;28;20044;-79
2022/06/17 13:42:39;;;;;;;0.38;0.20;;;;;;;28.54;31.72;102068.28;10521862;28;20048;-79
2022/06/17 13:48:08;;;;;;;0.05;0.05;;;;;;;28.41;33.14;102071.31;10532174;28;20055;-78
2022/06/17 13:53:31;;;;;;;;;;;;;;;28.99;30.48;102065.09;10544618;28;20085;-78
2022/06/17 13:58:56;;;;;;;0.10;0.10;;;;;;;27.96;32.97;102062.03;10552680;28;20015;-77
2022/06/17 14:04:16;;;;;;;4.40;0.23;;;;;;;28.23;33.77;102058.63;10552261;28;20278;-78
2022/06/17 14:09:33;;;;;;;0.30;0.17;;;;;;;28.34;32.10;102056.50;10544072;28;20068;-78
2022/06/17 14:14:38;;;;;;;0.47;0.45;;;;;;;27.92;33.56;102048.91;10521401;28;20537;-78
2022/06/17 14:19:51;;;;;;;0.20;0.20;;;;;;;28.53;33.44;102042.69;10544059;28;20438;-78
2022/06/17 14:24:52;;;;;;;0.30;0.20;;;;;;;28.79;33.67;102031.28;10548998;28;20486;-77
2022/06/17 14:30:15;;;;;;;0.00;0.00;;;;;;;28.45;32.87;102033.22;10517884;28;20525;-78
2022/06/17 14:35:28;;;;;;;0.10;0.10;;;;;;;28.59;32.82;102018.63;10547495;28;20046;-79
2022/06/17 14:46:04;;;;;;;0.57;0.30;;;;;;;28.93;33.38;102001.66;10539760;28;20061;-78
2022/06/17 14:51:31;;;;;;;0.85;0.70;;;;;;;28.93;34.31;101985.75;10520783;28;20483;-79
2022/06/17 14:56:39;;;;;;;0.20;0.20;;;;;;;29.08;31.82;101989.63;10541048;28;20044;-78
2022/06/17 15:01:46;;;;;;;0.52;0.43;;;;;;;29.16;33.99;101978.72;10549100;28;20036;-78
2022/06/17 15:06:48;;;;;;;0.30;0.30;;;;;;;29.05;31.81;101985.31;10517410;28;20419;-78
2022/06/17 15:12:02;;;;;;;0.28;0.10;;;;;;;29.24;32.17;101974.03;10545542;28;20048;-78
2022/06/17 15:17:15;;;;;;;0.52;0.20;;;;;;;28.91;33.00;101976.97;10499752;28;20060;-78
2022/06/17 15:22:29;;;;;;;0.40;0.30;;;;;;;29.09;31.15;101972.78;10528114;28;20044;-79
2022/06/17 15:28:22;;;;;;;0.10;0.10;;;;;;;28.96;30.88;101975.00;10522187;28;20071;-78
2022/06/17 15:33:47;;;;;;;0.43;0.28;;;;;;;28.96;32.16;101959.97;10506209;28;20076;-78
2022/06/17 15:38:59;;;;;;;0.20;0.20;;;;;;;29.04;32.43;101946.41;10534414;28;20089;-79
2022/06/17 15:44:22;;;;;;;0.25;0.13;;;;;;;28.76;32.91;101936.78;10513256;28;20052;-78
2022/06/17 15:49:28;;;;;;;0.52;0.10;;;;;;;29.13;31.81;101946.09;10520581;28;20048;-78
2022/06/17 15:54:31;;;;;;;2.13;1.08;;;;;;;29.34;31.77;101946.25;10555650;28;20044;-78
2022/06/17 15:59:33;;;;;;;0.17;0.17;;;;;;;28.93;32.58;101938.00;10532492;28;20048;-79
2022/06/17 16:04:38;;;;;;;0.32;0.30;;;;;;;29.06;33.30;101938.41;10530944;28;20433;-77
2022/06/17 16:10:07;;;;;;;0.30;0.10;;;;;;;28.90;31.96;101943.41;10529696;28;20041;-78
2022/06/17 16:15:12;;;;;;;0.03;0.00;;;;;;;29.04;32.56;101934.97;10517586;28;20483;-78
2022/06/17 16:20:20;;;;;;;0.00;0.00;;;;;;;29.25;31.23;101950.09;10538887;28;20040;-78
2022/06/17 16:25:29;;;;;;;0.75;0.40;;;;;;;28.97;32.05;101939.59;10520240;28;20050;-79
2022/06/17 16:30:46;;;;;;;0.25;0.20;;;;;;;29.35;31.73;101944.47;10531722;28;20048;-79
2022/06/17 16:35:55;;;;;;;0.10;0.10;;;;;;;29.38;32.09;101939.91;10521816;28;20040;-79
2022/06/17 16:47:07;;;;;;;0.20;0.20;;;;;;;28.58;32.53;101940.03;10538975;28;20040;-78
2022/06/17 16:52:24;;;;;;;0.32;0.20;;;;;;;28.48;34.72;101921.75;10529701;28;20071;-78
2022/06/17 16:57:31;;;;;;;0.10;0.10;;;;;;;28.33;35.88;101932.91;10535365;28;20040;-78
2022/06/17 17:02:33;;;;;;;0.43;0.25;;;;;;;28.49;34.70;101920.84;10517945;28;20479;-79
2022/06/17 17:07:35;;;;;;;0.55;0.38;;;;;;;28.54;34.90;101919.84;10542025;28;20097;-79
2022/06/17 17:12:47;;;;;;;0.10;0.10;;;;;;;28.50;34.02;101903.19;10517437;28;20037;-78
2022/06/17 17:17:49;;;;;;;0.75;0.75;;;;;;;28.47;37.76;101901.50;10519504;28;20044;-78
2022/06/17 17:22:55;;;;;;;0.10;0.10;;;;;;;28.58;36.16;101884.34;10497065;28;20040;-78
2022/06/17 17:27:58;;;;;;;0.25;0.20;;;;;;;28.32;35.58;101881.69;10523590;28;20154;-78
2022/06/17 17:33:05;;;;;;;0.20;0.20;;;;;;;28.38;38.80;101867.34;10530202;28;20048;-78
2022/06/17 17:38:07;;;;;;;0.85;0.38;;;;;;;28.56;38.40;101859.69;10506300;28;20044;-77
2022/06/17 17:43:13;;;;;;;0.38;0.38;;;;;;;28.36;38.48;101858.59;10539453;28;20036;-78
2022/06/17 17:48:18;;;;;;;0.60;0.20;;;;;;;28.36;38.81;101857.72;10539512;28;20056;-78
2022/06/17 17:53:23;;;;;;;0.32;0.20;;;;;;;28.33;38.46;101842.81;10499208;28;20044;-78
2022/06/17 17:58:25;;;;;;;0.00;0.00;;;;;;;28.09;38.08;101839.19;10513131;28;20044;-78
2022/06/17 18:03:26;;;;;;;0.00;0.00;;;;;;;28.11;38.96;101843.50;10512403;28;20059;-77
2022/06/17 18:08:28;;;;;;;0.30;0.10;;;;;;;28.18;39.85;101836.22;10537177;28;20445;-78
2022/06/17 18:13:30;;;;;;;0.10;0.10;;;;;;;28.09;38.72;101829.47;10535953;28;20040;-77
2022/06/17 18:18:33;;;;;;;0.43;0.20;;;;;;;28.11;41.14;101826.75;10502440;28;20052;-78
2022/06/17 18:23:35;;;;;;;3.53;0.80;;;;;;;27.88;40.74;101830.16;10519886;28;20056;-78
2022/06/17 18:28:43;;;;;;;0.10;0.05;;;;;;;27.88;39.00;101831.00;10513240;28;20509;-78
2022/06/17 18:33:46;;;;;;;0.10;0.10;;;;;;;27.82;41.87;101834.69;10536703;28;20055;-79
2022/06/17 18:38:50;;;;;;;0.00;0.00;;;;;;;27.81;41.37;101835.59;10535304;28;20798;-78
2022/06/17 18:43:52;;;;;;;0.32;0.10;;;;;;;27.74;41.06;101831.44;10523917;28;20075;-78
2022/06/17 18:48:55;;;;;;;0.00;0.00;;;;;;;27.44;42.62;101838.56;10540742;28;20074;-78
2022/06/17 18:54:05;;;;;;;0.10;0.10;;;;;;;27.47;42.18;101818.16;10542102;28;20048;-78
2022/06/17 18:59:08;;;;;;;0.10;0.10;;;;;;;27.26;42.73;101810.84;10544606;28;20028;-78
2022/06/17 19:04:18;;;;;;;0.10;0.10;;;;;;;27.19;41.68;101811.03;10533401;28;20052;-79
2022/06/17 19:20:23;;;;;;;0.00;0.00;;;;;;;26.83;43.41;101811.19;10414526;28;20058;-78
2022/06/17 19:25:36;;;;;;;0.50;0.40;;;;;;;26.59;43.64;101810.03;10378130;28;20033;-78
2022/06/17 19:30:37;;;;;;;0.00;0.00;;;;;;;26.51;42.98;101807.59;10414202;28;20521;-78
2022/06/17 19:35:54;;;;;;;0.10;0.10;;;;;;;26.20;43.87;101813.69;10510452;28;20044;-78
2022/06/17 19:46:22;;;;;;;0.10;0.10;;;;;;;25.93;44.21;101813.44;10507609;28;20094;-78
2022/06/17 19:51:24;;;;;;;0.63;0.40;;;;;;;25.72;43.76;101811.31;10525217;28;20046;-78
2022/06/17 19:56:46;;;;;;;0.10;0.10;;;;;;;25.61;44.27;101816.84;10538855;28;20483;-77
2022/06/17 20:01:54;;;;;;;0.10;0.10;;;;;;;25.57;45.10;101813.41;10552494;28;20425;-78
2022/06/17 20:07:02;;;;;;;;;;;;;;;25.38;44.78;101817.31;10507794;28;20040;-77
2022/06/17 20:12:04;;;;;;;0.30;0.22;;;;;;;25.21;45.41;101820.31;10501711;28;19969;-76
2022/06/17 20:17:13;;;;;;;0.22;0.00;;;;;;;25.15;45.31;101811.63;10537014;28;20062;-76
2022/06/17 20:22:17;;;;;;;0.00;0.00;;;;;;;25.01;46.89;101814.53;10537072;28;20048;-76
2022/06/17 20:27:26;;;;;;;1.23;0.25;;;;;;;24.77;46.71;101809.75;10529482;28;20380;-76
2022/06/17 20:32:37;;;;;;;0.30;0.15;;;;;;;24.55;48.07;101804.84;10518141;28;20052;-77
2022/06/17 20:37:49;;;;;;;0.25;0.17;;;;;;;24.16;50.02;101797.63;10516758;28;20040;-76
2022/06/17 20:42:51;;;;;;;0.28;0.20;;;;;;;24.13;50.05;101796.81;10536096;28;20126;-77
2022/06/17 20:53:14;;;;;;;0.20;0.20;;;;;;;23.88;50.86;101802.44;10538215;28;20048;-76
2022/06/17 20:58:20;;;;;;;0.52;0.43;;;;;;;23.64;51.00;101799.31;10519359;28;20039;-77
2022/06/17 21:03:24;;;;;;;0.00;0.00;;;;;;;23.48;51.95;101797.78;10533294;28;20040;-77
2022/06/17 21:08:29;;;;;;;1.60;0.32;;;;;;;23.27;52.89;101794.56;10537018;28;20313;-77
2022/06/17 21:13:37;;;;;;;0.45;0.40;;;;;;;23.19;52.37;101785.91;10520368;28;20040;-77
2022/06/17 21:18:41;;;;;;;0.00;0.00;;;;;;;23.11;52.77;101778.94;10535150;28;20044;-76
2022/06/17 21:23:45;;;;;;;2.50;0.77;;;;;;;23.00;52.92;101775.56;10526477;28;20051;-77
2022/06/17 21:28:51;;;;;;;0.47;0.40;;;;;;;22.90;53.48;101768.66;10527633;28;20483;-77
2022/06/17 21:33:53;;;;;;;0.32;0.32;;;;;;;22.87;53.29;101758.22;10539403;28;20056;-77
2022/06/17 21:39:00;;;;;;;1.55;0.52;;;;;;;22.72;54.05;101759.25;10535250;28;20394;-77
2022/06/17 21:44:02;;;;;;;0.63;0.43;;;;;;;22.63;54.38;101754.97;10525442;28;20048;-80
2022/06/17 21:49:04;;;;;;;0.30;0.10;;;;;;;22.78;53.45;101749.56;10547545;28;20105;-79
2022/06/17 21:54:12;;;;;;;0.00;0.00;;;;;;;22.56;54.81;101748.06;10559696;28;20097;-80
2022/06/17 21:59:22;;;;;;;0.05;0.05;;;;;;;22.44;55.02;101749.94;10523866;28;20113;-77
2022/06/17 22:04:24;;;;;;;0.40;0.30;;;;;;;22.38;55.12;101757.81;10553509;28;20059;-80
2022/06/17 22:09:27;;;;;;;0.22;0.17;;;;;;;22.41;55.17;101749.97;10527815;28;20044;-80
2022/06/17 22:14:35;;;;;;;0.20;0.20;;;;;;;22.32;55.23;101744.75;10546045;28;20048;-80
2022/06/17 22:19:39;;;;;;;0.10;0.10;;;;;;;22.30;55.28;101743.94;10535728;28;20490;-79
2022/06/17 22:24:41;;;;;;;0.38;0.20;;;;;;;22.28;54.90;101738.66;10549107;28;20055;-79
2022/06/17 22:29:43;;;;;;;0.20;0.20;;;;;;;22.21;55.76;101736.13;10545546;28;20040;-79
2022/06/17 22:34:52;;;;;;;0.10;0.10;;;;;;;22.12;55.87;101742.31;10541050;28;20044;-79
2022/06/17 22:39:54;;;;;;;1.08;0.57;;;;;;;22.20;55.47;101730.00;10527018;28;20119;-79
2022/06/17 22:44:56;;;;;;;0.38;0.20;;;;;;;22.19;55.56;101723.88;10543232;28;20127;-79
2022/06/17 22:50:05;;;;;;;0.57;0.40;;;;;;;21.99;56.22;101725.84;10524897;28;20044;-79
2022/06/17 22:55:15;;;;;;;0.28;0.22;;;;;;;21.90;56.70;101728.53;10546175;28;20054;-74
2022/06/17 23:00:20;;;;;;;0.52;0.30;;;;;;;21.81;57.43;101722.47;10542803;28;20044;-74
2022/06/17 23:05:26;;;;;;;0.45;0.45;;;;;;;21.61;58.22;101717.38;10521547;28;20064;-74
2022/06/17 23:10:36;;;;;;;0.52;0.20;;;;;;;21.50;58.88;101706.06;10543115;28;20086;-74
2022/06/17 23:15:38;;;;;;;0.30;0.20;;;;;;;21.57;58.60;101707.78;10552127;28;20032;-74
2022/06/17 23:20:40;;;;;;;0.25;0.20;;;;;;;21.45;59.09;101703.47;10544087;28;20694;-74
2022/06/17 23:25:41;;;;;;;0.65;0.47;;;;;;;21.41;59.77;101699.13;10532797;28;20040;-74
2022/06/17 23:30:43;;;;;;;0.43;0.30;;;;;;;21.30;59.99;101691.31;10545244;28;20052;-74
2022/06/17 23:35:51;;;;;;;0.20;0.20;;;;;;;21.32;59.67;101686.94;10540548;28;20101;-73
2022/06/17 23:40:52;;;;;;;0.57;0.43;;;;;;;21.33;59.79;101687.84;10527225;28;20111;-74
2022/06/17 23:45:54;;;;;;;0.10;0.10;;;;;;;21.37;59.53;101679.06;10553832;28;20045;-74
2022/06/17 23:51:00;;;;;;;1.20;0.75;;;;;;;21.42;59.73;101682.50;10547759;28;20514;-74
2022/06/17 23:56:04;;;;;;;0.10;0.10;;;;;;;21.45;59.09;101682.50;10540564;28;20043;-74
